This is the latest recevied weather packets stored in our database for station/object N4OGP-WX. If no packets are shown the sender has not sent any weather packets the latest 10 day(s).
| Time | Temp. | Humidity | Pressure | Rain* | Wind** | Luminosity | Snow |
|---|---|---|---|---|---|---|---|
| 1777312306 | 23.89° C | 42% | 1020.4 hPa | 0 mm | - | - | - |
| 1777312246 | 27.22° C | 72% | 1014.7 hPa | 0 mm | - | - | - |
| 1777312186 | 23.89° C | 42% | 1020.4 hPa | 0 mm | - | - | - |
| 1777312126 | 27.22° C | 71% | 1014.8 hPa | 0 mm | - | - | - |
| 1777312036 | 23.89° C | 42% | 1020.4 hPa | 0 mm | - | - | - |
| 1777311946 | 23.89° C | 42% | 1020.4 hPa | 0 mm | - | - | - |
| 1777311856 | 26.67° C | 72% | 1014.7 hPa | 0 mm | - | - | - |
| 1777311796 | 26.67° C | 72% | 1014.7 hPa | 0 mm | - | - | - |
| 1777311706 | 23.89° C | 42% | 1020.4 hPa | 0 mm | - | - | - |
| 1777311646 | 26.67° C | 71% | 1014.7 hPa | 0 mm | - | - | - |
| 1777311586 | 23.89° C | 42% | 1020.4 hPa | 0 mm | - | - | - |
| 1777311526 | 23.89° C | 42% | 1020.4 hPa | 0 mm | - | - | - |
| 1777311466 | 26.67° C | 72% | 1014.7 hPa | 0 mm | - | - | - |
| 1777311406 | 23.89° C | 42% | 1020.4 hPa | 0 mm | - | - | - |
| 1777311346 | 26.67° C | 71% | 1014.7 hPa | 0 mm | - | - | - |
| 1777311286 | 26.67° C | 70% | 1014.8 hPa | 0 mm | - | - | - |
| 1777311196 | 26.67° C | 71% | 1014.8 hPa | 0 mm | - | - | - |
| 1777311106 | 23.89° C | 42% | 1020.4 hPa | 0 mm | - | - | - |
| 1777311046 | 26.67° C | 72% | 1014.7 hPa | 0 mm | - | - | - |
| 1777310956 | 23.89° C | 42% | 1020.4 hPa | 0 mm | - | - | - |
| 1777310866 | 23.89° C | 42% | 1020.4 hPa | 0 mm | - | - | - |
| 1777310806 | 26.67° C | 72% | 1014.7 hPa | 0 mm | - | - | - |
| 1777310746 | 23.89° C | 42% | 1020.4 hPa | 0 mm | - | - | - |
| 1777310656 | 27.22° C | 71% | 1014.6 hPa | 0 mm | - | - | - |
| 1777310596 | 23.89° C | 42% | 1020.4 hPa | 0 mm | - | - | - |
* Rain latest hour (hover to see other rain measurements)
** Current wind speed in m/s (hover to see current wind gust speed)